sensor_id;sensor_type;location;lat;lon;timestamp;P1;durP1;ratioP1;P2;durP2;ratioP2
71108;SDS011;59614;51.012;-1.648;2022-09-09T00:00:23;18.20;;;4.35;;
71108;SDS011;59614;51.012;-1.648;2022-09-09T00:03:05;13.50;;;4.57;;
71108;SDS011;59614;51.012;-1.648;2022-09-09T00:09:02;14.70;;;4.90;;
71108;SDS011;59614;51.012;-1.648;2022-09-09T00:16:49;12.40;;;5.25;;
71108;SDS011;59614;51.012;-1.648;2022-09-09T00:22:15;14.00;;;4.97;;
71108;SDS011;59614;51.012;-1.648;2022-09-09T00:24:45;16.55;;;5.60;;
71108;SDS011;59614;51.012;-1.648;2022-09-09T00:32:47;17.08;;;5.50;;
71108;SDS011;59614;51.012;-1.648;2022-09-09T00:38:12;17.38;;;5.53;;
71108;SDS011;59614;51.012;-1.648;2022-09-09T00:41:02;13.07;;;5.20;;
71108;SDS011;59614;51.012;-1.648;2022-09-09T00:43:29;14.07;;;6.18;;
71108;SDS011;59614;51.012;-1.648;2022-09-09T00:57:10;15.68;;;6.50;;
71108;SDS011;59614;51.012;-1.648;2022-09-09T00:59:48;14.90;;;6.47;;
71108;SDS011;59614;51.012;-1.648;2022-09-09T01:02:27;19.48;;;8.05;;
71108;SDS011;59614;51.012;-1.648;2022-09-09T01:05:13;17.67;;;7.35;;
71108;SDS011;59614;51.012;-1.648;2022-09-09T01:08:02;18.35;;;8.07;;
71108;SDS011;59614;51.012;-1.648;2022-09-09T01:15:51;19.00;;;9.95;;
71108;SDS011;59614;51.012;-1.648;2022-09-09T01:18:23;24.50;;;10.68;;
71108;SDS011;59614;51.012;-1.648;2022-09-09T01:26:34;16.10;;;8.43;;
71108;SDS011;59614;51.012;-1.648;2022-09-09T01:29:02;18.77;;;9.27;;
71108;SDS011;59614;51.012;-1.648;2022-09-09T01:31:33;19.08;;;9.32;;
71108;SDS011;59614;51.012;-1.648;2022-09-09T01:34:00;21.83;;;8.68;;
71108;SDS011;59614;51.012;-1.648;2022-09-09T01:36:33;20.20;;;8.35;;
71108;SDS011;59614;51.012;-1.648;2022-09-09T01:39:09;15.23;;;7.13;;
71108;SDS011;59614;51.012;-1.648;2022-09-09T01:41:35;12.93;;;7.13;;
71108;SDS011;59614;51.012;-1.648;2022-09-09T01:44:01;21.55;;;8.85;;
71108;SDS011;59614;51.012;-1.648;2022-09-09T01:46:27;15.90;;;7.35;;
71108;SDS011;59614;51.012;-1.648;2022-09-09T01:48:53;18.58;;;8.20;;
71108;SDS011;59614;51.012;-1.648;2022-09-09T01:51:21;20.60;;;8.18;;
71108;SDS011;59614;51.012;-1.648;2022-09-09T01:53:47;19.85;;;8.32;;
71108;SDS011;59614;51.012;-1.648;2022-09-09T01:59:16;16.75;;;7.85;;
71108;SDS011;59614;51.012;-1.648;2022-09-09T02:09:50;16.75;;;7.32;;
71108;SDS011;59614;51.012;-1.648;2022-09-09T02:12:22;22.00;;;8.05;;
71108;SDS011;59614;51.012;-1.648;2022-09-09T02:14:51;15.00;;;6.35;;
71108;SDS011;59614;51.012;-1.648;2022-09-09T02:17:24;15.60;;;6.78;;
71108;SDS011;59614;51.012;-1.648;2022-09-09T02:22:53;16.13;;;6.28;;
71108;SDS011;59614;51.012;-1.648;2022-09-09T02:25:21;16.00;;;6.17;;
71108;SDS011;59614;51.012;-1.648;2022-09-09T02:27:49;16.52;;;6.03;;
71108;SDS011;59614;51.012;-1.648;2022-09-09T02:30:16;20.23;;;7.17;;
71108;SDS011;59614;51.012;-1.648;2022-09-09T02:32:43;16.00;;;6.70;;
71108;SDS011;59614;51.012;-1.648;2022-09-09T02:35:14;16.15;;;7.78;;
71108;SDS011;59614;51.012;-1.648;2022-09-09T02:37:44;16.25;;;6.85;;
71108;SDS011;59614;51.012;-1.648;2022-09-09T02:40:13;18.73;;;7.60;;
71108;SDS011;59614;51.012;-1.648;2022-09-09T02:42:44;19.92;;;7.57;;
71108;SDS011;59614;51.012;-1.648;2022-09-09T02:45:13;17.67;;;7.28;;
71108;SDS011;59614;51.012;-1.648;2022-09-09T02:48:03;15.40;;;7.18;;
71108;SDS011;59614;51.012;-1.648;2022-09-09T02:51:01;16.42;;;7.72;;
71108;SDS011;59614;51.012;-1.648;2022-09-09T02:53:39;12.80;;;7.53;;
71108;SDS011;59614;51.012;-1.648;2022-09-09T02:56:15;16.63;;;8.00;;
71108;SDS011;59614;51.012;-1.648;2022-09-09T02:58:44;14.02;;;7.40;;
71108;SDS011;59614;51.012;-1.648;2022-09-09T03:01:11;21.48;;;9.13;;
71108;SDS011;59614;51.012;-1.648;2022-09-09T03:03:37;14.07;;;8.57;;
71108;SDS011;59614;51.012;-1.648;2022-09-09T03:06:03;16.95;;;8.85;;
71108;SDS011;59614;51.012;-1.648;2022-09-09T03:08:28;17.67;;;10.70;;
71108;SDS011;59614;51.012;-1.648;2022-09-09T03:10:54;15.68;;;9.68;;
71108;SDS011;59614;51.012;-1.648;2022-09-09T03:13:20;17.35;;;9.95;;
71108;SDS011;59614;51.012;-1.648;2022-09-09T03:15:47;18.52;;;10.63;;
71108;SDS011;59614;51.012;-1.648;2022-09-09T03:18:13;19.95;;;10.57;;
71108;SDS011;59614;51.012;-1.648;2022-09-09T03:20:38;23.83;;;11.63;;
71108;SDS011;59614;51.012;-1.648;2022-09-09T03:23:04;20.95;;;11.52;;
71108;SDS011;59614;51.012;-1.648;2022-09-09T03:25:29;22.60;;;11.02;;
71108;SDS011;59614;51.012;-1.648;2022-09-09T03:27:55;20.27;;;11.18;;
71108;SDS011;59614;51.012;-1.648;2022-09-09T03:30:25;18.42;;;9.73;;
71108;SDS011;59614;51.012;-1.648;2022-09-09T03:32:51;17.35;;;11.20;;
71108;SDS011;59614;51.012;-1.648;2022-09-09T03:35:17;18.52;;;10.93;;
71108;SDS011;59614;51.012;-1.648;2022-09-09T03:37:42;17.35;;;11.60;;
71108;SDS011;59614;51.012;-1.648;2022-09-09T03:40:08;22.45;;;11.77;;
71108;SDS011;59614;51.012;-1.648;2022-09-09T03:42:35;24.75;;;12.05;;
71108;SDS011;59614;51.012;-1.648;2022-09-09T03:45:05;17.10;;;10.15;;
71108;SDS011;59614;51.012;-1.648;2022-09-09T03:47:31;19.52;;;12.20;;
71108;SDS011;59614;51.012;-1.648;2022-09-09T03:49:58;22.40;;;13.40;;
71108;SDS011;59614;51.012;-1.648;2022-09-09T03:52:23;18.83;;;11.35;;
71108;SDS011;59614;51.012;-1.648;2022-09-09T03:54:51;25.13;;;13.18;;
71108;SDS011;59614;51.012;-1.648;2022-09-09T03:57:17;23.30;;;12.57;;
71108;SDS011;59614;51.012;-1.648;2022-09-09T03:59:43;24.38;;;12.57;;
71108;SDS011;59614;51.012;-1.648;2022-09-09T04:02:09;26.38;;;11.45;;
71108;SDS011;59614;51.012;-1.648;2022-09-09T04:04:34;20.15;;;12.40;;
71108;SDS011;59614;51.012;-1.648;2022-09-09T04:07:00;20.63;;;12.13;;
71108;SDS011;59614;51.012;-1.648;2022-09-09T04:09:25;17.48;;;10.57;;
71108;SDS011;59614;51.012;-1.648;2022-09-09T04:11:51;18.95;;;11.00;;
71108;SDS011;59614;51.012;-1.648;2022-09-09T04:14:18;15.98;;;10.55;;
71108;SDS011;59614;51.012;-1.648;2022-09-09T04:16:44;19.48;;;11.50;;
71108;SDS011;59614;51.012;-1.648;2022-09-09T04:19:10;17.25;;;10.82;;
71108;SDS011;59614;51.012;-1.648;2022-09-09T04:21:38;21.33;;;11.07;;
71108;SDS011;59614;51.012;-1.648;2022-09-09T04:24:05;17.67;;;10.45;;
71108;SDS011;59614;51.012;-1.648;2022-09-09T04:26:30;23.40;;;10.82;;
71108;SDS011;59614;51.012;-1.648;2022-09-09T04:28:56;22.75;;;10.23;;
71108;SDS011;59614;51.012;-1.648;2022-09-09T04:31:22;16.23;;;10.77;;
71108;SDS011;59614;51.012;-1.648;2022-09-09T04:33:48;19.25;;;9.52;;
71108;SDS011;59614;51.012;-1.648;2022-09-09T04:36:15;16.10;;;10.55;;
71108;SDS011;59614;51.012;-1.648;2022-09-09T04:38:41;15.02;;;9.55;;
71108;SDS011;59614;51.012;-1.648;2022-09-09T04:41:07;20.48;;;9.63;;
71108;SDS011;59614;51.012;-1.648;2022-09-09T04:43:33;16.52;;;9.02;;
71108;SDS011;59614;51.012;-1.648;2022-09-09T04:45:59;17.15;;;9.75;;
71108;SDS011;59614;51.012;-1.648;2022-09-09T04:48:25;22.23;;;10.57;;
71108;SDS011;59614;51.012;-1.648;2022-09-09T04:51:00;20.02;;;9.60;;
71108;SDS011;59614;51.012;-1.648;2022-09-09T04:53:29;20.77;;;9.35;;
71108;SDS011;59614;51.012;-1.648;2022-09-09T04:56:05;15.60;;;9.23;;
71108;SDS011;59614;51.012;-1.648;2022-09-09T04:58:31;16.90;;;9.00;;
71108;SDS011;59614;51.012;-1.648;2022-09-09T05:01:10;14.70;;;9.63;;
71108;SDS011;59614;51.012;-1.648;2022-09-09T05:03:36;15.23;;;8.80;;
71108;SDS011;59614;51.012;-1.648;2022-09-09T05:06:03;17.85;;;9.23;;
71108;SDS011;59614;51.012;-1.648;2022-09-09T05:08:33;14.65;;;9.23;;
71108;SDS011;59614;51.012;-1.648;2022-09-09T05:10:59;17.10;;;9.45;;
71108;SDS011;59614;51.012;-1.648;2022-09-09T05:13:25;17.27;;;9.10;;
71108;SDS011;59614;51.012;-1.648;2022-09-09T05:15:54;17.55;;;8.38;;
71108;SDS011;59614;51.012;-1.648;2022-09-09T05:18:20;18.73;;;9.07;;
71108;SDS011;59614;51.012;-1.648;2022-09-09T05:20:47;12.90;;;8.73;;
71108;SDS011;59614;51.012;-1.648;2022-09-09T05:23:13;15.00;;;7.85;;
71108;SDS011;59614;51.012;-1.648;2022-09-09T05:25:39;15.00;;;8.25;;
71108;SDS011;59614;51.012;-1.648;2022-09-09T05:28:06;13.18;;;7.75;;
71108;SDS011;59614;51.012;-1.648;2022-09-09T05:30:32;25.48;;;9.73;;
71108;SDS011;59614;51.012;-1.648;2022-09-09T05:32:58;14.52;;;7.80;;
71108;SDS011;59614;51.012;-1.648;2022-09-09T05:35:24;11.70;;;7.70;;
71108;SDS011;59614;51.012;-1.648;2022-09-09T05:37:49;10.93;;;6.70;;
71108;SDS011;59614;51.012;-1.648;2022-09-09T05:40:15;18.15;;;7.40;;
71108;SDS011;59614;51.012;-1.648;2022-09-09T05:42:41;12.00;;;7.05;;
71108;SDS011;59614;51.012;-1.648;2022-09-09T05:45:07;9.95;;;6.57;;
71108;SDS011;59614;51.012;-1.648;2022-09-09T05:47:33;12.70;;;6.90;;
71108;SDS011;59614;51.012;-1.648;2022-09-09T05:50:00;11.65;;;7.28;;
71108;SDS011;59614;51.012;-1.648;2022-09-09T05:52:26;13.63;;;7.00;;
71108;SDS011;59614;51.012;-1.648;2022-09-09T05:54:52;16.75;;;7.38;;
71108;SDS011;59614;51.012;-1.648;2022-09-09T05:57:18;14.05;;;7.90;;
71108;SDS011;59614;51.012;-1.648;2022-09-09T05:59:44;16.45;;;7.10;;
71108;SDS011;59614;51.012;-1.648;2022-09-09T06:02:09;12.57;;;6.28;;
71108;SDS011;59614;51.012;-1.648;2022-09-09T06:04:35;12.20;;;6.22;;
71108;SDS011;59614;51.012;-1.648;2022-09-09T06:07:00;13.77;;;6.97;;
71108;SDS011;59614;51.012;-1.648;2022-09-09T06:09:26;17.90;;;6.93;;
71108;SDS011;59614;51.012;-1.648;2022-09-09T06:11:51;14.35;;;6.88;;
71108;SDS011;59614;51.012;-1.648;2022-09-09T06:14:17;12.65;;;6.90;;
71108;SDS011;59614;51.012;-1.648;2022-09-09T06:16:46;11.82;;;7.43;;
71108;SDS011;59614;51.012;-1.648;2022-09-09T06:19:11;19.10;;;7.43;;
71108;SDS011;59614;51.012;-1.648;2022-09-09T06:21:38;18.00;;;7.32;;
71108;SDS011;59614;51.012;-1.648;2022-09-09T06:24:04;15.32;;;7.18;;
71108;SDS011;59614;51.012;-1.648;2022-09-09T06:26:48;14.57;;;6.82;;
71108;SDS011;59614;51.012;-1.648;2022-09-09T06:29:13;13.68;;;6.90;;
71108;SDS011;59614;51.012;-1.648;2022-09-09T06:31:38;10.73;;;7.00;;
71108;SDS011;59614;51.012;-1.648;2022-09-09T06:34:05;14.30;;;6.97;;
71108;SDS011;59614;51.012;-1.648;2022-09-09T06:36:32;15.25;;;6.45;;
71108;SDS011;59614;51.012;-1.648;2022-09-09T06:41:27;15.60;;;5.15;;
71108;SDS011;59614;51.012;-1.648;2022-09-09T06:43:54;11.95;;;4.75;;
71108;SDS011;59614;51.012;-1.648;2022-09-09T06:46:26;8.77;;;4.47;;
71108;SDS011;59614;51.012;-1.648;2022-09-09T06:48:53;13.43;;;4.85;;
71108;SDS011;59614;51.012;-1.648;2022-09-09T06:51:25;10.00;;;3.80;;
71108;SDS011;59614;51.012;-1.648;2022-09-09T06:53:56;7.05;;;3.00;;
71108;SDS011;59614;51.012;-1.648;2022-09-09T06:56:33;10.40;;;2.60;;
71108;SDS011;59614;51.012;-1.648;2022-09-09T06:59:02;8.30;;;2.88;;
71108;SDS011;59614;51.012;-1.648;2022-09-09T07:01:33;7.78;;;2.80;;
71108;SDS011;59614;51.012;-1.648;2022-09-09T07:04:01;10.23;;;3.17;;
71108;SDS011;59614;51.012;-1.648;2022-09-09T07:06:29;7.47;;;3.10;;
71108;SDS011;59614;51.012;-1.648;2022-09-09T07:08:58;8.05;;;2.58;;
71108;SDS011;59614;51.012;-1.648;2022-09-09T07:11:29;11.32;;;2.42;;
71108;SDS011;59614;51.012;-1.648;2022-09-09T07:13:57;6.93;;;2.70;;
71108;SDS011;59614;51.012;-1.648;2022-09-09T07:16:24;9.68;;;2.50;;
71108;SDS011;59614;51.012;-1.648;2022-09-09T07:18:50;10.85;;;2.60;;
71108;SDS011;59614;51.012;-1.648;2022-09-09T07:21:17;8.77;;;2.50;;
71108;SDS011;59614;51.012;-1.648;2022-09-09T07:23:44;6.40;;;2.40;;
71108;SDS011;59614;51.012;-1.648;2022-09-09T07:26:10;8.50;;;2.63;;
71108;SDS011;59614;51.012;-1.648;2022-09-09T07:28:38;7.55;;;2.10;;
71108;SDS011;59614;51.012;-1.648;2022-09-09T07:31:04;10.20;;;2.13;;
71108;SDS011;59614;51.012;-1.648;2022-09-09T07:33:31;5.90;;;2.17;;
71108;SDS011;59614;51.012;-1.648;2022-09-09T07:38:40;6.65;;;2.03;;
71108;SDS011;59614;51.012;-1.648;2022-09-09T07:41:09;6.95;;;2.20;;
71108;SDS011;59614;51.012;-1.648;2022-09-09T07:43:38;8.27;;;2.10;;
71108;SDS011;59614;51.012;-1.648;2022-09-09T07:46:05;9.32;;;2.45;;
71108;SDS011;59614;51.012;-1.648;2022-09-09T07:48:31;7.15;;;2.15;;
71108;SDS011;59614;51.012;-1.648;2022-09-09T07:51:07;6.40;;;2.55;;
71108;SDS011;59614;51.012;-1.648;2022-09-09T07:53:36;11.60;;;3.00;;
71108;SDS011;59614;51.012;-1.648;2022-09-09T07:56:06;11.10;;;2.35;;
71108;SDS011;59614;51.012;-1.648;2022-09-09T07:58:34;6.93;;;2.42;;
71108;SDS011;59614;51.012;-1.648;2022-09-09T08:01:08;8.20;;;2.40;;
71108;SDS011;59614;51.012;-1.648;2022-09-09T08:03:38;5.78;;;2.20;;
71108;SDS011;59614;51.012;-1.648;2022-09-09T08:06:05;10.85;;;2.58;;
71108;SDS011;59614;51.012;-1.648;2022-09-09T08:08:33;10.75;;;2.67;;
71108;SDS011;59614;51.012;-1.648;2022-09-09T08:11:06;7.07;;;2.17;;
71108;SDS011;59614;51.012;-1.648;2022-09-09T08:13:35;11.05;;;2.47;;
71108;SDS011;59614;51.012;-1.648;2022-09-09T08:16:14;9.63;;;3.60;;
71108;SDS011;59614;51.012;-1.648;2022-09-09T08:18:46;6.60;;;2.22;;
71108;SDS011;59614;51.012;-1.648;2022-09-09T08:21:13;6.88;;;2.30;;
71108;SDS011;59614;51.012;-1.648;2022-09-09T08:23:42;10.85;;;2.40;;
71108;SDS011;59614;51.012;-1.648;2022-09-09T08:28:47;6.93;;;2.30;;
71108;SDS011;59614;51.012;-1.648;2022-09-09T08:31:17;8.93;;;2.50;;
71108;SDS011;59614;51.012;-1.648;2022-09-09T08:33:43;5.90;;;2.22;;
71108;SDS011;59614;51.012;-1.648;2022-09-09T08:36:11;6.30;;;2.00;;
71108;SDS011;59614;51.012;-1.648;2022-09-09T08:38:40;4.53;;;1.88;;
71108;SDS011;59614;51.012;-1.648;2022-09-09T08:41:20;6.22;;;2.10;;
71108;SDS011;59614;51.012;-1.648;2022-09-09T08:43:48;6.63;;;2.13;;
71108;SDS011;59614;51.012;-1.648;2022-09-09T08:46:29;5.93;;;2.00;;
71108;SDS011;59614;51.012;-1.648;2022-09-09T08:49:20;6.13;;;2.10;;
71108;SDS011;59614;51.012;-1.648;2022-09-09T08:51:47;6.43;;;2.00;;
71108;SDS011;59614;51.012;-1.648;2022-09-09T08:54:14;7.90;;;1.90;;
71108;SDS011;59614;51.012;-1.648;2022-09-09T08:56:40;7.95;;;2.00;;
71108;SDS011;59614;51.012;-1.648;2022-09-09T08:59:07;6.70;;;1.90;;
71108;SDS011;59614;51.012;-1.648;2022-09-09T09:07:31;6.15;;;1.75;;
71108;SDS011;59614;51.012;-1.648;2022-09-09T09:12:35;7.18;;;1.90;;
71108;SDS011;59614;51.012;-1.648;2022-09-09T09:15:12;7.60;;;1.85;;
71108;SDS011;59614;51.012;-1.648;2022-09-09T09:17:43;4.35;;;1.70;;
71108;SDS011;59614;51.012;-1.648;2022-09-09T09:20:12;3.80;;;1.67;;
71108;SDS011;59614;51.012;-1.648;2022-09-09T09:22:43;6.50;;;1.80;;
71108;SDS011;59614;51.012;-1.648;2022-09-09T09:25:15;5.63;;;2.00;;
71108;SDS011;59614;51.012;-1.648;2022-09-09T09:30:53;16.58;;;2.40;;
71108;SDS011;59614;51.012;-1.648;2022-09-09T09:33:27;5.05;;;2.10;;
71108;SDS011;59614;51.012;-1.648;2022-09-09T09:36:11;5.18;;;1.88;;
71108;SDS011;59614;51.012;-1.648;2022-09-09T09:38:50;10.23;;;2.40;;
71108;SDS011;59614;51.012;-1.648;2022-09-09T09:41:28;8.88;;;2.15;;
71108;SDS011;59614;51.012;-1.648;2022-09-09T09:44:05;6.82;;;2.10;;
71108;SDS011;59614;51.012;-1.648;2022-09-09T09:46:46;5.18;;;2.00;;
71108;SDS011;59614;51.012;-1.648;2022-09-09T09:49:12;8.30;;;2.15;;
71108;SDS011;59614;51.012;-1.648;2022-09-09T09:51:38;6.38;;;2.30;;
71108;SDS011;59614;51.012;-1.648;2022-09-09T09:56:43;9.13;;;2.42;;
71108;SDS011;59614;51.012;-1.648;2022-09-09T10:04:59;2.35;;;1.50;;
71108;SDS011;59614;51.012;-1.648;2022-09-09T10:07:29;3.95;;;1.70;;
71108;SDS011;59614;51.012;-1.648;2022-09-09T10:09:55;5.28;;;1.80;;
71108;SDS011;59614;51.012;-1.648;2022-09-09T10:22:52;9.07;;;2.27;;
71108;SDS011;59614;51.012;-1.648;2022-09-09T10:34:23;7.20;;;2.00;;
71108;SDS011;59614;51.012;-1.648;2022-09-09T10:37:03;5.50;;;2.13;;
71108;SDS011;59614;51.012;-1.648;2022-09-09T10:42:15;10.65;;;2.78;;
71108;SDS011;59614;51.012;-1.648;2022-09-09T10:50:37;5.03;;;2.28;;
71108;SDS011;59614;51.012;-1.648;2022-09-09T10:56:16;4.78;;;2.03;;
71108;SDS011;59614;51.012;-1.648;2022-09-09T11:01:25;7.50;;;2.50;;
71108;SDS011;59614;51.012;-1.648;2022-09-09T11:03:57;7.30;;;2.63;;
71108;SDS011;59614;51.012;-1.648;2022-09-09T11:06:47;6.25;;;2.33;;
71108;SDS011;59614;51.012;-1.648;2022-09-09T11:09:18;4.57;;;2.50;;
71108;SDS011;59614;51.012;-1.648;2022-09-09T11:11:52;8.60;;;2.60;;
71108;SDS011;59614;51.012;-1.648;2022-09-09T11:17:14;8.05;;;2.28;;
71108;SDS011;59614;51.012;-1.648;2022-09-09T11:19:43;9.65;;;2.55;;
71108;SDS011;59614;51.012;-1.648;2022-09-09T11:22:17;7.95;;;2.28;;
71108;SDS011;59614;51.012;-1.648;2022-09-09T11:37:56;4.20;;;2.05;;
71108;SDS011;59614;51.012;-1.648;2022-09-09T11:40:27;5.57;;;1.95;;
71108;SDS011;59614;51.012;-1.648;2022-09-09T11:43:13;10.93;;;2.00;;
71108;SDS011;59614;51.012;-1.648;2022-09-09T11:45:41;3.92;;;1.80;;
71108;SDS011;59614;51.012;-1.648;2022-09-09T11:48:57;4.68;;;1.77;;
71108;SDS011;59614;51.012;-1.648;2022-09-09T11:51:40;5.18;;;1.67;;
71108;SDS011;59614;51.012;-1.648;2022-09-09T11:53:59;5.80;;;1.73;;
71108;SDS011;59614;51.012;-1.648;2022-09-09T11:56:31;3.13;;;1.70;;
71108;SDS011;59614;51.012;-1.648;2022-09-09T11:59:28;3.15;;;1.63;;
71108;SDS011;59614;51.012;-1.648;2022-09-09T12:02:29;3.10;;;1.52;;
71108;SDS011;59614;51.012;-1.648;2022-09-09T12:12:29;6.38;;;2.20;;
71108;SDS011;59614;51.012;-1.648;2022-09-09T12:17:28;7.25;;;2.55;;
71108;SDS011;59614;51.012;-1.648;2022-09-09T12:20:03;6.85;;;2.25;;
71108;SDS011;59614;51.012;-1.648;2022-09-09T12:33:10;6.88;;;2.63;;
71108;SDS011;59614;51.012;-1.648;2022-09-09T12:35:38;3.50;;;2.00;;
71108;SDS011;59614;51.012;-1.648;2022-09-09T12:40:36;4.57;;;2.03;;
71108;SDS011;59614;51.012;-1.648;2022-09-09T12:43:14;3.88;;;2.00;;
71108;SDS011;59614;51.012;-1.648;2022-09-09T12:45:42;6.60;;;1.90;;
71108;SDS011;59614;51.012;-1.648;2022-09-09T12:48:08;3.28;;;1.70;;
71108;SDS011;59614;51.012;-1.648;2022-09-09T12:50:46;3.72;;;1.67;;
71108;SDS011;59614;51.012;-1.648;2022-09-09T12:58:27;3.30;;;1.92;;
71108;SDS011;59614;51.012;-1.648;2022-09-09T13:00:58;5.88;;;2.00;;
71108;SDS011;59614;51.012;-1.648;2022-09-09T13:03:25;4.97;;;2.00;;
71108;SDS011;59614;51.012;-1.648;2022-09-09T13:05:51;4.35;;;2.00;;
71108;SDS011;59614;51.012;-1.648;2022-09-09T13:08:18;3.97;;;1.73;;
71108;SDS011;59614;51.012;-1.648;2022-09-09T13:10:51;3.92;;;2.13;;
71108;SDS011;59614;51.012;-1.648;2022-09-09T13:13:27;3.50;;;1.85;;
71108;SDS011;59614;51.012;-1.648;2022-09-09T13:15:58;3.10;;;1.83;;
71108;SDS011;59614;51.012;-1.648;2022-09-09T13:18:29;4.63;;;1.98;;
71108;SDS011;59614;51.012;-1.648;2022-09-09T13:20:59;7.75;;;2.05;;
71108;SDS011;59614;51.012;-1.648;2022-09-09T13:23:32;6.00;;;2.25;;
71108;SDS011;59614;51.012;-1.648;2022-09-09T13:26:01;4.65;;;1.85;;
71108;SDS011;59614;51.012;-1.648;2022-09-09T13:28:29;4.32;;;2.00;;
71108;SDS011;59614;51.012;-1.648;2022-09-09T13:30:59;4.32;;;1.80;;
71108;SDS011;59614;51.012;-1.648;2022-09-09T13:33:35;4.05;;;1.90;;
71108;SDS011;59614;51.012;-1.648;2022-09-09T13:36:08;5.50;;;1.85;;
71108;SDS011;59614;51.012;-1.648;2022-09-09T13:38:36;4.25;;;1.80;;
71108;SDS011;59614;51.012;-1.648;2022-09-09T13:41:06;5.95;;;2.20;;
71108;SDS011;59614;51.012;-1.648;2022-09-09T13:54:02;6.80;;;2.38;;
71108;SDS011;59614;51.012;-1.648;2022-09-09T13:56:31;3.70;;;2.05;;
71108;SDS011;59614;51.012;-1.648;2022-09-09T13:58:57;5.43;;;2.17;;
71108;SDS011;59614;51.012;-1.648;2022-09-09T14:01:23;5.97;;;1.80;;
71108;SDS011;59614;51.012;-1.648;2022-09-09T14:03:48;6.85;;;2.00;;
71108;SDS011;59614;51.012;-1.648;2022-09-09T14:06:14;4.60;;;1.98;;
71108;SDS011;59614;51.012;-1.648;2022-09-09T14:08:39;6.70;;;2.22;;
71108;SDS011;59614;51.012;-1.648;2022-09-09T14:11:05;4.78;;;2.22;;
71108;SDS011;59614;51.012;-1.648;2022-09-09T14:13:34;7.65;;;2.20;;
71108;SDS011;59614;51.012;-1.648;2022-09-09T14:16:02;6.25;;;2.05;;
71108;SDS011;59614;51.012;-1.648;2022-09-09T14:18:27;9.02;;;2.03;;
71108;SDS011;59614;51.012;-1.648;2022-09-09T14:20:54;6.28;;;2.20;;
71108;SDS011;59614;51.012;-1.648;2022-09-09T14:23:19;4.32;;;2.15;;
71108;SDS011;59614;51.012;-1.648;2022-09-09T14:25:47;5.13;;;2.30;;
71108;SDS011;59614;51.012;-1.648;2022-09-09T14:28:13;6.68;;;2.50;;
71108;SDS011;59614;51.012;-1.648;2022-09-09T14:30:39;10.07;;;2.90;;
71108;SDS011;59614;51.012;-1.648;2022-09-09T14:33:07;5.38;;;2.50;;
71108;SDS011;59614;51.012;-1.648;2022-09-09T14:35:33;8.57;;;2.83;;
71108;SDS011;59614;51.012;-1.648;2022-09-09T14:37:59;7.10;;;2.75;;
71108;SDS011;59614;51.012;-1.648;2022-09-09T14:40:26;5.80;;;2.97;;
71108;SDS011;59614;51.012;-1.648;2022-09-09T14:42:52;6.35;;;2.50;;
71108;SDS011;59614;51.012;-1.648;2022-09-09T14:45:17;5.18;;;2.45;;
71108;SDS011;59614;51.012;-1.648;2022-09-09T14:47:43;6.15;;;2.95;;
71108;SDS011;59614;51.012;-1.648;2022-09-09T14:50:08;6.57;;;2.67;;
71108;SDS011;59614;51.012;-1.648;2022-09-09T14:52:34;6.78;;;2.70;;
71108;SDS011;59614;51.012;-1.648;2022-09-09T14:54:59;6.95;;;2.28;;
71108;SDS011;59614;51.012;-1.648;2022-09-09T14:57:24;5.65;;;2.00;;
71108;SDS011;59614;51.012;-1.648;2022-09-09T14:59:50;4.95;;;1.92;;
71108;SDS011;59614;51.012;-1.648;2022-09-09T15:02:15;2.95;;;1.70;;
71108;SDS011;59614;51.012;-1.648;2022-09-09T15:04:41;7.25;;;2.05;;
71108;SDS011;59614;51.012;-1.648;2022-09-09T15:07:06;3.92;;;2.13;;
71108;SDS011;59614;51.012;-1.648;2022-09-09T15:09:32;4.65;;;1.80;;
71108;SDS011;59614;51.012;-1.648;2022-09-09T15:11:57;5.32;;;2.25;;
71108;SDS011;59614;51.012;-1.648;2022-09-09T15:14:23;4.60;;;2.20;;
71108;SDS011;59614;51.012;-1.648;2022-09-09T15:16:48;4.38;;;2.03;;
71108;SDS011;59614;51.012;-1.648;2022-09-09T15:19:14;3.78;;;2.10;;
71108;SDS011;59614;51.012;-1.648;2022-09-09T15:21:39;3.70;;;1.80;;
71108;SDS011;59614;51.012;-1.648;2022-09-09T15:24:05;4.30;;;2.00;;
71108;SDS011;59614;51.012;-1.648;2022-09-09T15:26:33;4.78;;;1.95;;
71108;SDS011;59614;51.012;-1.648;2022-09-09T15:28:58;4.57;;;2.08;;
71108;SDS011;59614;51.012;-1.648;2022-09-09T15:31:27;3.70;;;1.90;;
71108;SDS011;59614;51.012;-1.648;2022-09-09T15:33:56;5.97;;;2.20;;
71108;SDS011;59614;51.012;-1.648;2022-09-09T15:36:32;4.72;;;2.10;;
71108;SDS011;59614;51.012;-1.648;2022-09-09T15:39:00;5.10;;;2.10;;
71108;SDS011;59614;51.012;-1.648;2022-09-09T15:41:28;5.22;;;1.95;;
71108;SDS011;59614;51.012;-1.648;2022-09-09T15:43:55;6.80;;;2.10;;
71108;SDS011;59614;51.012;-1.648;2022-09-09T15:48:52;4.70;;;2.10;;
71108;SDS011;59614;51.012;-1.648;2022-09-09T15:51:19;6.43;;;2.28;;
71108;SDS011;59614;51.012;-1.648;2022-09-09T15:53:45;6.15;;;2.08;;
71108;SDS011;59614;51.012;-1.648;2022-09-09T15:56:10;7.97;;;2.10;;
71108;SDS011;59614;51.012;-1.648;2022-09-09T15:58:36;5.60;;;2.10;;
71108;SDS011;59614;51.012;-1.648;2022-09-09T16:01:03;5.07;;;2.20;;
71108;SDS011;59614;51.012;-1.648;2022-09-09T16:03:29;6.53;;;2.20;;
71108;SDS011;59614;51.012;-1.648;2022-09-09T16:05:58;3.92;;;2.13;;
71108;SDS011;59614;51.012;-1.648;2022-09-09T16:08:25;5.47;;;2.13;;
71108;SDS011;59614;51.012;-1.648;2022-09-09T16:10:56;4.93;;;1.92;;
71108;SDS011;59614;51.012;-1.648;2022-09-09T16:13:21;6.97;;;2.20;;
71108;SDS011;59614;51.012;-1.648;2022-09-09T16:15:53;5.03;;;1.95;;
71108;SDS011;59614;51.012;-1.648;2022-09-09T16:18:19;7.15;;;2.15;;
71108;SDS011;59614;51.012;-1.648;2022-09-09T16:20:52;7.40;;;2.30;;
71108;SDS011;59614;51.012;-1.648;2022-09-09T16:23:21;4.50;;;1.95;;
71108;SDS011;59614;51.012;-1.648;2022-09-09T16:25:55;7.07;;;2.17;;
71108;SDS011;59614;51.012;-1.648;2022-09-09T16:28:21;5.85;;;2.20;;
71108;SDS011;59614;51.012;-1.648;2022-09-09T16:30:47;8.07;;;2.10;;
71108;SDS011;59614;51.012;-1.648;2022-09-09T16:33:13;8.65;;;2.72;;
71108;SDS011;59614;51.012;-1.648;2022-09-09T16:35:39;6.93;;;2.22;;
71108;SDS011;59614;51.012;-1.648;2022-09-09T16:38:05;6.47;;;2.67;;
71108;SDS011;59614;51.012;-1.648;2022-09-09T16:40:33;6.32;;;2.50;;
71108;SDS011;59614;51.012;-1.648;2022-09-09T16:43:00;6.65;;;2.30;;
71108;SDS011;59614;51.012;-1.648;2022-09-09T16:45:26;6.53;;;2.45;;
71108;SDS011;59614;51.012;-1.648;2022-09-09T16:47:52;6.47;;;2.60;;
71108;SDS011;59614;51.012;-1.648;2022-09-09T16:50:18;8.95;;;2.80;;
71108;SDS011;59614;51.012;-1.648;2022-09-09T16:52:43;9.52;;;2.60;;
71108;SDS011;59614;51.012;-1.648;2022-09-09T16:55:08;10.00;;;3.03;;
71108;SDS011;59614;51.012;-1.648;2022-09-09T16:57:34;5.70;;;2.70;;
71108;SDS011;59614;51.012;-1.648;2022-09-09T17:00:00;9.63;;;2.70;;
71108;SDS011;59614;51.012;-1.648;2022-09-09T17:02:29;8.02;;;2.65;;
71108;SDS011;59614;51.012;-1.648;2022-09-09T17:04:55;9.25;;;2.85;;
71108;SDS011;59614;51.012;-1.648;2022-09-09T17:07:20;8.38;;;2.50;;
71108;SDS011;59614;51.012;-1.648;2022-09-09T17:09:46;8.27;;;2.45;;
71108;SDS011;59614;51.012;-1.648;2022-09-09T17:12:11;7.45;;;2.67;;
71108;SDS011;59614;51.012;-1.648;2022-09-09T17:14:37;7.35;;;2.80;;
71108;SDS011;59614;51.012;-1.648;2022-09-09T17:17:03;10.23;;;2.80;;
71108;SDS011;59614;51.012;-1.648;2022-09-09T17:19:29;8.70;;;2.53;;
71108;SDS011;59614;51.012;-1.648;2022-09-09T17:21:56;8.13;;;2.47;;
71108;SDS011;59614;51.012;-1.648;2022-09-09T17:24:25;7.63;;;2.70;;
71108;SDS011;59614;51.012;-1.648;2022-09-09T17:26:51;11.82;;;2.90;;
71108;SDS011;59614;51.012;-1.648;2022-09-09T17:29:17;6.15;;;2.25;;
71108;SDS011;59614;51.012;-1.648;2022-09-09T17:31:43;6.50;;;2.80;;
71108;SDS011;59614;51.012;-1.648;2022-09-09T17:34:08;7.45;;;2.67;;